createdAt,value
2023-05-23T00:00:52.108Z,15.80
2023-05-23T00:05:59.816Z,10.60
2023-05-23T00:11:02.414Z,11.70
2023-05-23T00:16:09.654Z,11.10
2023-05-23T00:21:13.655Z,9.10
2023-05-23T00:26:16.286Z,8.80
2023-05-23T00:31:18.964Z,11.20
2023-05-23T00:36:22.248Z,10.90
2023-05-23T00:41:27.005Z,9.00
2023-05-23T00:46:31.849Z,9.30
2023-05-23T00:51:34.638Z,10.50
2023-05-23T00:56:38.807Z,11.30
2023-05-23T01:01:41.575Z,10.30
2023-05-23T01:06:46.663Z,12.30
2023-05-23T01:12:00.756Z,12.70
2023-05-23T01:17:25.287Z,10.90
2023-05-23T01:22:50.566Z,15.90
2023-05-23T01:27:57.043Z,12.50
2023-05-23T01:33:00.766Z,16.20
2023-05-23T01:38:03.571Z,10.20
2023-05-23T01:43:06.783Z,10.00
2023-05-23T01:48:11.912Z,16.40
2023-05-23T01:53:17.533Z,12.80
2023-05-23T01:58:20.328Z,19.00
2023-05-23T02:03:23.068Z,11.10
2023-05-23T02:08:25.865Z,10.50
2023-05-23T02:13:28.470Z,12.00
2023-05-23T02:18:31.096Z,12.00
2023-05-23T02:23:33.880Z,12.20
2023-05-23T02:28:36.531Z,11.00
2023-05-23T02:33:39.117Z,9.80
2023-05-23T02:38:41.714Z,11.70
2023-05-23T02:43:47.062Z,11.50
2023-05-23T02:48:50.155Z,12.20
2023-05-23T02:53:52.771Z,20.10
2023-05-23T02:58:55.389Z,11.10
2023-05-23T03:03:58.147Z,14.50
2023-05-23T03:09:01.571Z,11.20
2023-05-23T03:14:04.276Z,11.70
2023-05-23T03:19:06.965Z,15.90
2023-05-23T03:24:09.623Z,12.90
2023-05-23T03:29:12.531Z,14.60
2023-05-23T03:34:15.434Z,11.60
2023-05-23T03:39:18.342Z,11.40
2023-05-23T03:44:21.012Z,15.10
2023-05-23T03:49:23.688Z,11.50
2023-05-23T03:54:26.644Z,12.90
2023-05-23T03:59:29.317Z,10.80
2023-05-23T04:04:32.323Z,17.00
2023-05-23T04:09:35.031Z,13.50
2023-05-23T04:14:39.469Z,16.50
2023-05-23T04:19:43.299Z,11.30
2023-05-23T04:24:46.164Z,10.30
2023-05-23T04:29:48.862Z,10.10
2023-05-23T04:34:52.269Z,14.50
2023-05-23T04:39:55.127Z,10.00
2023-05-23T04:44:58.222Z,11.70
2023-05-23T04:50:01.055Z,10.40
2023-05-23T04:55:04.739Z,13.50
2023-05-23T05:00:11.517Z,9.40
2023-05-23T05:05:14.111Z,9.30
2023-05-23T05:10:17.836Z,11.60
2023-05-23T05:15:20.520Z,12.60
2023-05-23T05:20:23.317Z,13.30
2023-05-23T05:25:27.402Z,12.20
2023-05-23T05:30:30.636Z,11.50
2023-05-23T05:35:38.406Z,19.50
2023-05-23T05:40:41.212Z,26.60
2023-05-23T05:45:43.976Z,11.40
2023-05-23T05:50:46.930Z,14.50
2023-05-23T05:55:49.614Z,8.90
2023-05-23T06:00:53.622Z,8.30
2023-05-23T06:05:56.225Z,9.40
2023-05-23T06:10:58.859Z,7.00
2023-05-23T06:16:01.552Z,7.50
2023-05-23T06:21:04.243Z,10.90
2023-05-23T06:26:10.647Z,5.20
2023-05-23T06:31:13.476Z,7.30
2023-05-23T06:36:16.090Z,4.80
2023-05-23T06:41:18.823Z,4.10
2023-05-23T06:46:21.670Z,6.70
2023-05-23T06:51:24.414Z,7.70
2023-05-23T06:56:27.114Z,7.70
2023-05-23T07:01:29.772Z,4.20
2023-05-23T07:06:32.913Z,6.70
2023-05-23T07:11:35.620Z,5.80
2023-05-23T07:16:38.228Z,4.30
2023-05-23T07:21:40.920Z,4.00
2023-05-23T07:26:43.764Z,3.40
2023-05-23T07:31:46.459Z,4.30
2023-05-23T07:36:50.320Z,4.20
2023-05-23T07:41:52.986Z,5.00
2023-05-23T07:46:56.998Z,4.10
2023-05-23T07:51:59.704Z,4.80
2023-05-23T07:57:02.328Z,5.30
2023-05-23T08:02:05.044Z,5.00
2023-05-23T08:07:08.865Z,4.50
2023-05-23T08:12:11.681Z,4.20
2023-05-23T08:17:14.455Z,3.80
2023-05-23T08:22:17.166Z,5.00
2023-05-23T08:27:19.859Z,2.90
2023-05-23T08:32:22.677Z,4.60
2023-05-23T08:37:25.363Z,4.30
2023-05-23T08:42:27.977Z,3.40
2023-05-23T08:47:33.925Z,4.60
2023-05-23T08:52:43.018Z,4.20
2023-05-23T08:57:46.139Z,2.70
2023-05-23T09:02:48.773Z,8.10
2023-05-23T09:07:51.876Z,5.10
2023-05-23T09:12:54.555Z,4.90
2023-05-23T09:18:03.751Z,4.50
2023-05-23T09:23:06.419Z,3.30
2023-05-23T09:28:09.331Z,4.60
2023-05-23T09:33:14.215Z,4.30
2023-05-23T09:38:19.187Z,5.80
2023-05-23T09:43:22.070Z,5.90
2023-05-23T09:48:30.998Z,7.20
2023-05-23T09:53:33.580Z,5.40
2023-05-23T09:58:36.946Z,2.60
2023-05-23T10:03:59.946Z,3.70
2023-05-23T10:09:09.850Z,11.10
2023-05-23T10:14:13.388Z,5.50
2023-05-23T10:19:46.276Z,3.60
2023-05-23T10:24:49.461Z,2.90
2023-05-23T10:29:52.221Z,5.90
2023-05-23T10:35:10.623Z,3.00
2023-05-23T10:40:31.080Z,4.00
2023-05-23T10:45:42.620Z,3.10
2023-05-23T10:50:46.772Z,9.40
2023-05-23T10:55:49.407Z,4.40
2023-05-23T11:00:53.135Z,5.20
2023-05-23T11:05:55.761Z,3.60
2023-05-23T11:11:03.223Z,2.80
2023-05-23T11:16:27.815Z,7.00
2023-05-23T11:21:32.093Z,5.40
2023-05-23T11:26:34.736Z,2.40
2023-05-23T11:31:38.304Z,6.10
2023-05-23T11:36:41.370Z,3.60
2023-05-23T11:41:44.091Z,3.50
2023-05-23T11:47:00.453Z,4.00
2023-05-23T11:52:03.889Z,5.70
2023-05-23T11:57:06.575Z,8.00
2023-05-23T12:02:09.272Z,3.40
2023-05-23T12:07:11.942Z,2.90
2023-05-23T12:12:15.032Z,2.80
2023-05-23T12:17:17.677Z,3.90
2023-05-23T12:27:32.371Z,5.50
2023-05-23T12:32:39.772Z,3.30
2023-05-23T12:37:45.950Z,5.70
2023-05-23T12:42:52.883Z,6.30
2023-05-23T12:47:55.676Z,3.70
2023-05-23T12:52:59.041Z,3.30
2023-05-23T12:58:01.627Z,4.30
2023-05-23T13:03:06.582Z,4.80
2023-05-23T13:08:09.397Z,4.20
2023-05-23T13:13:12.286Z,6.20
2023-05-23T13:18:14.997Z,3.00
2023-05-23T13:28:20.604Z,4.80
2023-05-23T13:33:23.670Z,5.50
2023-05-23T13:38:27.640Z,4.60
2023-05-23T13:43:31.192Z,2.40
2023-05-23T13:48:33.884Z,2.30
2023-05-23T13:53:36.556Z,5.70
2023-05-23T14:03:41.807Z,7.30
2023-05-23T14:08:44.489Z,3.30
2023-05-23T14:13:47.142Z,3.70
2023-05-23T14:18:50.061Z,5.00
2023-05-23T14:23:52.679Z,4.80
2023-05-23T14:28:55.417Z,7.00
2023-05-23T14:33:58.236Z,3.90
2023-05-23T14:39:01.416Z,5.80
2023-05-23T14:44:04.392Z,8.40
2023-05-23T14:49:07.125Z,5.90
2023-05-23T14:54:09.870Z,5.30
2023-05-23T14:59:12.791Z,4.90
2023-05-23T15:04:15.749Z,5.10
2023-05-23T15:09:19.094Z,3.70
2023-05-23T15:14:22.889Z,5.00
2023-05-23T15:19:25.520Z,8.00
2023-05-23T15:24:28.533Z,10.60
2023-05-23T15:29:33.791Z,2.90
2023-05-23T15:34:36.529Z,7.60
2023-05-23T15:39:39.165Z,4.40
2023-05-23T15:44:41.869Z,5.70
2023-05-23T15:49:44.663Z,4.00
2023-05-23T15:59:49.871Z,5.30
2023-05-23T16:04:52.483Z,5.20
2023-05-23T16:09:55.154Z,6.00
2023-05-23T16:14:57.930Z,4.60
2023-05-23T16:20:02.755Z,4.20
2023-05-23T16:25:06.732Z,5.50
2023-05-23T16:30:09.981Z,8.40
2023-05-23T16:35:12.926Z,6.30
2023-05-23T16:40:17.661Z,10.00
2023-05-23T16:45:21.853Z,5.80
2023-05-23T16:50:24.555Z,5.20
2023-05-23T16:55:27.188Z,11.90
2023-05-23T17:00:29.855Z,5.20
2023-05-23T17:05:33.823Z,9.50
2023-05-23T17:10:36.987Z,6.10
2023-05-23T17:15:40.111Z,7.50
2023-05-23T17:20:43.135Z,9.90
2023-05-23T17:25:46.570Z,6.00
2023-05-23T17:30:51.759Z,5.50
2023-05-23T17:35:55.187Z,7.20
2023-05-23T17:40:58.140Z,13.00
2023-05-23T17:46:01.248Z,15.20
2023-05-23T17:51:04.250Z,7.70
2023-05-23T17:56:09.219Z,8.40
2023-05-23T18:06:16.902Z,9.20
2023-05-23T18:11:21.470Z,8.50
2023-05-23T18:16:24.140Z,7.40
2023-05-23T18:21:27.423Z,8.20
2023-05-23T18:26:30.353Z,9.70
2023-05-23T18:31:33.270Z,7.40
2023-05-23T18:36:36.606Z,13.90
2023-05-23T18:41:39.781Z,8.40
2023-05-23T18:46:42.736Z,14.60
2023-05-23T18:51:47.429Z,10.70
2023-05-23T18:56:50.440Z,17.90
2023-05-23T19:01:54.335Z,10.50
2023-05-23T19:06:57.123Z,10.50
2023-05-23T19:12:00.645Z,11.00
2023-05-23T19:17:05.824Z,7.70
2023-05-23T19:22:09.573Z,11.60
2023-05-23T19:27:12.471Z,15.60
2023-05-23T19:32:16.618Z,13.50
2023-05-23T19:37:20.907Z,14.90
2023-05-23T19:42:24.064Z,8.60
2023-05-23T19:47:29.555Z,11.70
2023-05-23T19:52:33.431Z,15.20
2023-05-23T19:57:37.127Z,10.80
2023-05-23T20:02:39.787Z,12.30
2023-05-23T20:07:43.501Z,12.20
2023-05-23T20:12:47.924Z,9.00
2023-05-23T20:17:51.026Z,9.50
2023-05-23T20:22:53.716Z,14.10
2023-05-23T20:27:56.604Z,10.70
2023-05-23T20:32:59.268Z,12.70
2023-05-23T20:38:02.278Z,16.90
2023-05-23T20:43:05.101Z,11.90
2023-05-23T20:48:07.957Z,11.90
2023-05-23T20:53:10.862Z,9.50
2023-05-23T20:58:13.429Z,12.80
2023-05-23T21:03:16.807Z,10.50
2023-05-23T21:08:19.615Z,10.90
2023-05-23T21:13:22.202Z,14.30
2023-05-23T21:18:24.819Z,12.00
2023-05-23T21:23:27.450Z,9.80
2023-05-23T21:28:30.412Z,8.90
2023-05-23T21:33:33.553Z,12.30
2023-05-23T21:38:37.507Z,9.90
2023-05-23T21:43:40.360Z,15.60
2023-05-23T21:48:42.990Z,14.10
2023-05-23T21:53:45.648Z,12.70
2023-05-23T21:58:48.210Z,15.90
2023-05-23T22:03:51.278Z,13.40
2023-05-23T22:08:54.251Z,12.00
2023-05-23T22:13:56.827Z,9.00
2023-05-23T22:18:59.436Z,12.00
2023-05-23T22:24:02.791Z,9.90
2023-05-23T22:29:05.477Z,13.80
2023-05-23T22:34:08.062Z,11.70
2023-05-23T22:39:10.698Z,10.10
2023-05-23T22:44:13.269Z,9.20
2023-05-23T22:49:15.835Z,14.80
2023-05-23T22:54:18.600Z,10.10
2023-05-23T22:59:21.228Z,14.60
2023-05-23T23:04:25.436Z,10.30
2023-05-23T23:09:28.156Z,8.20
2023-05-23T23:14:30.937Z,7.90
2023-05-23T23:19:35.255Z,11.50
2023-05-23T23:24:37.854Z,9.10
2023-05-23T23:29:40.463Z,9.10
2023-05-23T23:34:43.015Z,7.90
2023-05-23T23:39:45.788Z,8.90
2023-05-23T23:44:48.634Z,11.20
2023-05-23T23:49:51.338Z,12.30
2023-05-23T23:54:53.950Z,11.30
2023-05-23T23:59:56.787Z,10.20
